createdAt,value
2019-01-25T04:28:59.882Z,78.77
2019-01-25T04:34:23.953Z,82.60
2019-01-25T04:40:56.091Z,81.93
2019-01-25T04:46:25.502Z,88.33
2019-01-25T05:03:08.930Z,99.13
2019-01-25T05:08:35.413Z,90.90
2019-01-25T05:13:59.086Z,92.30
2019-01-25T05:19:23.095Z,91.10
2019-01-25T05:24:46.719Z,88.53
2019-01-25T05:30:18.953Z,96.17
2019-01-25T05:35:59.072Z,92.43
2019-01-25T05:41:28.277Z,95.03
2019-01-25T05:46:50.100Z,89.57
2019-01-25T05:52:18.483Z,96.03
2019-01-25T05:57:43.826Z,89.03
2019-01-25T06:03:10.373Z,101.07
2019-01-25T06:08:35.709Z,100.47
2019-01-25T06:19:37.171Z,99.67
2019-01-25T06:25:01.126Z,97.83
2019-01-25T06:30:24.735Z,88.33
2019-01-25T06:35:49.970Z,91.90
2019-01-25T06:41:54.606Z,103.43
2019-01-25T07:06:06.951Z,96.50
2019-01-25T07:11:31.024Z,93.87
2019-01-25T07:16:55.454Z,94.73
2019-01-25T07:22:20.315Z,96.80
2019-01-25T07:27:45.227Z,92.10
2019-01-25T07:33:08.935Z,98.40
2019-01-25T07:38:33.777Z,66.83
2019-01-25T07:43:58.236Z,64.50
2019-01-25T07:49:22.589Z,63.53
2019-01-25T07:54:47.307Z,69.07
2019-01-25T08:00:11.886Z,63.17
2019-01-25T08:05:36.337Z,66.97
2019-01-25T08:11:00.519Z,79.83
2019-01-25T08:16:26.419Z,76.53
2019-01-25T08:21:50.717Z,78.57
2019-01-25T08:27:15.165Z,71.80
2019-01-25T08:32:39.715Z,73.10
2019-01-25T08:38:06.388Z,75.37
2019-01-25T08:43:30.399Z,60.43
2019-01-25T08:48:55.115Z,56.43
2019-01-25T08:54:19.503Z,60.80
2019-01-25T08:59:45.687Z,54.10
2019-01-25T09:05:10.848Z,57.47
2019-01-25T09:10:34.945Z,68.93
2019-01-25T09:15:59.438Z,72.83
2019-01-25T09:21:24.122Z,80.50
2019-01-25T09:26:48.949Z,86.13
2019-01-25T09:32:13.191Z,87.83
2019-01-25T09:37:37.831Z,89.33
2019-01-25T09:43:01.731Z,95.03
2019-01-25T09:48:26.203Z,101.67
2019-01-25T09:53:50.399Z,102.17
2019-01-25T09:59:13.939Z,99.97
2019-01-25T10:04:38.430Z,118.70
2019-01-25T10:10:02.014Z,111.67
2019-01-25T10:15:27.199Z,109.47
2019-01-25T10:20:50.739Z,110.33
2019-01-25T10:26:14.935Z,114.03
2019-01-25T10:31:39.851Z,106.40
2019-01-25T10:37:04.814Z,97.80
2019-01-25T10:42:28.712Z,94.13
2019-01-25T10:47:53.200Z,87.53
2019-01-25T10:53:17.728Z,87.27
2019-01-25T10:58:41.498Z,88.43
2019-01-25T11:04:11.393Z,92.53
2019-01-25T11:09:31.935Z,94.10
2019-01-25T11:14:56.126Z,92.03
2019-01-25T11:20:23.478Z,93.47
2019-01-25T11:25:48.767Z,107.63
2019-01-25T11:31:13.371Z,93.00
2019-01-25T11:36:37.771Z,99.53
2019-01-25T11:42:02.223Z,98.93
2019-01-25T11:47:26.735Z,100.07
2019-01-25T11:52:50.971Z,97.37
2019-01-25T11:58:15.179Z,100.57
2019-01-25T12:03:39.451Z,102.80
2019-01-25T12:09:05.071Z,94.40
2019-01-25T12:14:29.838Z,100.50
2019-01-25T12:19:54.487Z,95.10
2019-01-25T12:25:18.894Z,89.73
2019-01-25T12:30:43.223Z,87.97
2019-01-25T12:36:07.194Z,87.87
2019-01-25T12:41:31.674Z,89.70
2019-01-25T12:46:55.412Z,98.10
2019-01-25T12:52:18.976Z,93.70
2019-01-25T12:57:43.315Z,103.23
2019-01-25T13:03:08.633Z,103.93
2019-01-25T13:08:33.020Z,103.33
2019-01-25T13:13:58.048Z,105.13
2019-01-25T13:19:24.423Z,120.57
2019-01-25T13:24:48.654Z,114.97
2019-01-25T13:30:19.379Z,109.47
2019-01-25T13:35:44.421Z,122.83
2019-01-25T13:41:09.314Z,114.20
2019-01-25T13:46:34.071Z,113.77
2019-01-25T13:51:58.926Z,102.73
2019-01-25T13:57:23.714Z,111.67
2019-01-25T14:02:48.395Z,107.17
2019-01-25T14:08:13.299Z,104.87
2019-01-25T14:13:37.699Z,101.37
2019-01-25T14:19:01.755Z,97.33
2019-01-25T14:24:26.087Z,93.00
2019-01-25T14:29:50.955Z,96.80
2019-01-25T14:35:15.411Z,97.67
2019-01-25T14:40:39.016Z,95.77
2019-01-25T14:46:03.912Z,94.87
2019-01-25T14:51:28.066Z,91.80
2019-01-25T14:56:51.836Z,96.47
2019-01-25T15:02:16.560Z,94.33
2019-01-25T15:07:40.623Z,94.30
2019-01-25T15:13:07.035Z,100.23
2019-01-25T15:18:31.638Z,94.63
2019-01-25T15:23:56.153Z,92.07
2019-01-25T15:29:20.597Z,93.47
2019-01-25T15:34:44.471Z,87.60
2019-01-25T15:40:10.191Z,82.00
2019-01-25T15:45:34.732Z,81.07
2019-01-25T15:50:58.976Z,74.37
2019-01-25T15:56:23.479Z,60.77
2019-01-25T16:01:47.143Z,65.00
2019-01-25T16:07:11.831Z,55.77
2019-01-25T16:12:35.654Z,58.93
2019-01-25T16:18:00.205Z,59.20
2019-01-25T16:23:24.621Z,56.13
2019-01-25T16:28:48.128Z,56.60
2019-01-25T16:34:12.410Z,51.37
2019-01-25T16:39:37.678Z,47.93
2019-01-25T16:45:02.134Z,45.27
2019-01-25T16:50:26.806Z,45.03
2019-01-25T16:55:52.062Z,43.77
2019-01-25T17:01:16.336Z,38.20
2019-01-25T17:06:40.750Z,39.33
2019-01-25T17:12:05.235Z,41.83
2019-01-25T17:17:29.950Z,38.33
2019-01-25T17:22:54.470Z,40.00
2019-01-25T17:28:21.437Z,39.80
2019-01-25T17:33:46.226Z,38.60
2019-01-25T17:39:14.996Z,42.03
2019-01-25T17:44:41.387Z,42.30
2019-01-25T17:50:07.642Z,41.60
2019-01-25T17:55:31.411Z,48.53
2019-01-25T18:00:56.346Z,52.30
2019-01-25T18:06:22.218Z,54.00
2019-01-25T18:11:47.062Z,55.27
2019-01-25T18:17:15.123Z,58.67
2019-01-25T18:22:40.629Z,66.87
2019-01-25T18:28:07.792Z,70.20
2019-01-25T18:33:32.010Z,80.30
2019-01-25T18:38:57.093Z,77.53
2019-01-25T18:44:21.256Z,87.60
2019-01-25T18:49:45.203Z,95.07
2019-01-25T18:54:52.139Z,86.10
2019-01-25T18:59:58.274Z,94.50
2019-01-25T19:05:04.267Z,88.50
2019-01-25T19:10:13.419Z,95.87
2019-01-25T19:15:21.866Z,90.43
2019-01-25T19:20:27.836Z,84.30
2019-01-25T19:25:34.635Z,86.60
2019-01-25T19:30:42.632Z,83.30
2019-01-25T19:35:49.847Z,83.53
2019-01-25T19:40:55.667Z,82.77
2019-01-25T19:46:01.627Z,88.53
2019-01-25T19:51:07.575Z,78.40
2019-01-25T19:56:13.568Z,73.03
2019-01-25T20:01:19.985Z,72.07
2019-01-25T20:06:26.187Z,64.47
2019-01-25T20:11:32.419Z,69.57
2019-01-25T20:16:40.062Z,66.13
2019-01-25T20:21:46.049Z,62.20
2019-01-25T20:26:52.489Z,58.97
2019-01-25T20:31:58.620Z,61.17
2019-01-25T20:37:04.603Z,48.67
2019-01-25T20:42:10.693Z,50.33
2019-01-25T20:47:16.661Z,51.83
2019-01-25T20:52:22.532Z,43.90
2019-01-25T20:57:29.802Z,54.57
2019-01-25T21:02:35.817Z,47.10
2019-01-25T21:07:42.219Z,35.27
2019-01-25T21:12:48.248Z,34.97
2019-01-25T21:17:54.395Z,32.37
2019-01-25T21:23:01.734Z,39.87
2019-01-25T21:28:07.755Z,32.87
2019-01-25T21:33:13.783Z,33.07
2019-01-25T21:38:19.818Z,39.63
2019-01-25T21:43:26.112Z,28.90
2019-01-25T21:48:32.016Z,30.73
2019-01-25T21:53:38.799Z,31.93
2019-01-25T21:58:45.051Z,27.50
2019-01-25T22:03:54.208Z,26.73
2019-01-25T22:09:02.765Z,30.57
2019-01-25T22:14:09.750Z,24.53
2019-01-25T22:19:15.830Z,25.30
2019-01-25T22:24:23.143Z,25.37
2019-01-25T22:29:31.162Z,22.53
2019-01-25T22:34:38.868Z,21.03
2019-01-25T22:39:45.566Z,21.80
2019-01-25T22:44:51.987Z,18.40
2019-01-25T22:49:59.135Z,18.37
2019-01-25T22:55:07.123Z,19.10
2019-01-25T23:00:47.219Z,21.20
2019-01-25T23:06:17.828Z,23.13
2019-01-25T23:11:23.879Z,22.40
2019-01-25T23:16:30.139Z,19.10
2019-01-25T23:21:36.350Z,19.73
2019-01-25T23:26:42.818Z,17.23
2019-01-25T23:31:48.747Z,19.70
2019-01-25T23:36:54.715Z,22.00
2019-01-25T23:42:00.788Z,23.30
2019-01-25T23:47:06.970Z,25.33
2019-01-25T23:52:13.338Z,23.27
2019-01-25T23:57:19.507Z,21.27
